Main page
Satellite images 10-day forecastsClimateMarine weather Cyclones Lightning AirportsFAQ Newsletter About
Weather : Europe Africa North America South America Asia Australia-Oceania Others
Languages Contact

Rovaniemi, Finland

Rovaniemi Airport

latitude: 66-34N, longitude: 025-50E, elevation: 197 m


METAR: EFRO 242050Z AUTO 28002KT CAVOK 04/M02 Q1006
TAF: EFRO 242022Z 2421/2521 30005KT CAVOK

Time: 00:02 (21:02 UTC)

Current weather observation

The report was made 12 minutes ago, at 20:50 UTC
Wind 2 kt from the West
Temperature 4°C
Humidity 65%
Pressure 1006 hPa
Visibility 10 km or more
no clouds below 1500 m and no cumulonimbus

Change units

Forecast

The report was made 40 minutes ago, at 20:22 UTC
Forecast valid from 24 at 21 UTC to 25 at 21 UTC
Wind 5 kt from the West/Northwest
Visibility 10 km or more
no clouds below 1500 m and no cumulonimbus
The information on this site is subject to a disclaimer
Weather : Europe Africa North America South America Asia Australia-Oceania Others
Satellite images 10-day forecastsClimateMarine weather Cyclones Lightning AirportsFAQ Languages Contact Newsletter About